EGXW/WTN METAR and TAF weather

Enter ICAO airport designator
Station Type Date Time Source
EGXW METAR 2021/05/15 22:50 UTC NOAA

EGXW 152250Z AUTO 13006KT 5000 -RA FEW003/// BKN020/// 09/08 Q0998


Station Type Date Time Source
EGXW Decoded METAR 2021/05/15 22:50 UTC NOAA

Waddington, United Kingdom (EGXW) 53-10N 000-31W 0M
May 15, 2021 - 06:50 PM EDT / 2021.05.15 2250 UTC
Wind: from the SE (130 degrees) at 7 MPH (6 KT):0
Visibility: 3 mile(s):0
Sky conditions: mostly cloudy
Weather: light rain
Temperature: 48 F (9 C)
Dew Point: 46 F (8 C)
Relative Humidity: 93%
Pressure (altimeter): 29.47 in. Hg (0998 hPa)
ob: EGXW 152250Z AUTO 13006KT 5000 -RA FEW003/// BKN020/// 09/08 Q0998
cycle: 23

Station Type Date Time Source
EGXW TAF 2021/05/14 12:45 UTC NOAA

TAF EGXW 141042Z 1412/1506 36005KT 9999 BKN030 PROB30
TEMPO 1412/1415 SCT018 PROB30 1422/1503 BKN014
BECMG 1503/1506 BKN014

Example: see airport list